Terminal Aerodrome Forecast
Issued by NWS

Home | Current Version | Previous Version | Text Only | Print | Product List | Glossary On
Versions: 1 2 3 4 5 6 7 8 9 10 11 12 13 14 15 16 17 18 19
000
FTUS43 KILX 281146
TAFCMI
TAF
KCMI 281146Z 2812/2912 35008KT P6SM VCSH SCT050 OVC080
     FM281500 34013G22KT P6SM SCT025 BKN045
      TEMPO 2816/2819 BKN025
     FM290200 33010KT P6SM BKN035
     FM290600 35012KT P6SM VCSH BKN025=

USA.gov is the U.S. government's official web portal to all federal, state and local government web resources and services.